Página principal
METAR-TAF:

METAR-TAF

Aeroportos :

Napakiak, Alasca, Estados Unidos

latitude: 60-41-25N, longitude: 161-58-43W, altura: 5 m

Observação actual do tempo

O boletim foi feito há 59 minutos, às 19:56 UTC
Vento 3 kt com direcção variável
Temperatura 17°C
Humidade 77%
Pressão 1015 hPa
Visibilidade: 16.1 km
Nuvens dispersasa uma altura de 10000 ft

METAR: PANA 171956Z AUTO VRB03KT 10SM SCT100 17/13 A2996 RMK AO2 RAB01E21 SLP145 P0000 T01670128 TSNO

Hora: 12:55 (20:55 UTC)


TAF: em falta

Observações e previsões do tempo de mais de 4000 aeroportos (mensagens METAR e TAF).

As estações disponíveis são os pontos amarelos e vermelhos sobre o mapa.

Mova o rato sobre o mapa para ver o nome da estação.

Depois clique no ponto para visualizar as observações e previsões meteorológicas.

Para alterar o mapa : clique nos botões verdes com uma cruz preta para aumentar o zoom; no botão verde com uma pitada de zoom; ou nas setas verdes para mapas adjacentes.


METAR-TAF: